sensor_id;sensor_type;location;lat;lon;timestamp;P1;durP1;ratioP1;P2;durP2;ratioP2
20935;SDS011;10627;54.514;18.532;2022-07-18T00:56:18;5.15;;;2.25;;
20935;SDS011;10627;54.514;18.532;2022-07-18T01:01:36;5.18;;;2.60;;
20935;SDS011;10627;54.514;18.532;2022-07-18T01:06:46;5.13;;;2.50;;
20935;SDS011;10627;54.514;18.532;2022-07-18T01:11:59;6.90;;;3.00;;
20935;SDS011;10627;54.514;18.532;2022-07-18T01:17:13;6.40;;;2.90;;
20935;SDS011;10627;54.514;18.532;2022-07-18T01:22:20;4.63;;;2.10;;
20935;SDS011;10627;54.514;18.532;2022-07-18T01:27:33;7.97;;;2.95;;
20935;SDS011;10627;54.514;18.532;2022-07-18T01:33:00;7.00;;;2.20;;
20935;SDS011;10627;54.514;18.532;2022-07-18T01:38:31;8.82;;;2.80;;
20935;SDS011;10627;54.514;18.532;2022-07-18T01:43:50;4.28;;;2.47;;
20935;SDS011;10627;54.514;18.532;2022-07-18T02:15:12;8.10;;;2.83;;
20935;SDS011;10627;54.514;18.532;2022-07-18T02:20:45;6.40;;;2.33;;
20935;SDS011;10627;54.514;18.532;2022-07-18T02:26:09;9.35;;;2.47;;
20935;SDS011;10627;54.514;18.532;2022-07-18T02:31:30;10.88;;;3.38;;
20935;SDS011;10627;54.514;18.532;2022-07-18T02:41:55;6.03;;;2.38;;
20935;SDS011;10627;54.514;18.532;2022-07-18T02:46:56;10.95;;;2.58;;
20935;SDS011;10627;54.514;18.532;2022-07-18T02:51:57;9.85;;;2.65;;
20935;SDS011;10627;54.514;18.532;2022-07-18T02:56:59;9.27;;;2.83;;
20935;SDS011;10627;54.514;18.532;2022-07-18T03:02:00;7.18;;;2.90;;
20935;SDS011;10627;54.514;18.532;2022-07-18T03:07:01;6.38;;;2.60;;
20935;SDS011;10627;54.514;18.532;2022-07-18T03:12:02;9.35;;;2.30;;
20935;SDS011;10627;54.514;18.532;2022-07-18T03:17:02;6.43;;;2.65;;
20935;SDS011;10627;54.514;18.532;2022-07-18T03:22:03;5.25;;;3.00;;
20935;SDS011;10627;54.514;18.532;2022-07-18T03:27:04;6.45;;;2.58;;
20935;SDS011;10627;54.514;18.532;2022-07-18T03:32:05;6.57;;;3.10;;
20935;SDS011;10627;54.514;18.532;2022-07-18T03:37:06;7.25;;;2.80;;
20935;SDS011;10627;54.514;18.532;2022-07-18T03:42:06;3.53;;;2.17;;
20935;SDS011;10627;54.514;18.532;2022-07-18T03:47:07;6.82;;;2.08;;
20935;SDS011;10627;54.514;18.532;2022-07-18T03:52:07;6.05;;;2.83;;
20935;SDS011;10627;54.514;18.532;2022-07-18T03:57:08;6.93;;;2.20;;
20935;SDS011;10627;54.514;18.532;2022-07-18T04:02:08;4.93;;;2.42;;
20935;SDS011;10627;54.514;18.532;2022-07-18T04:07:09;4.93;;;2.35;;
20935;SDS011;10627;54.514;18.532;2022-07-18T04:12:09;4.88;;;2.33;;
20935;SDS011;10627;54.514;18.532;2022-07-18T04:17:10;5.35;;;2.20;;
20935;SDS011;10627;54.514;18.532;2022-07-18T04:22:10;9.18;;;2.55;;
20935;SDS011;10627;54.514;18.532;2022-07-18T04:27:11;9.40;;;2.03;;
20935;SDS011;10627;54.514;18.532;2022-07-18T04:32:12;10.40;;;2.50;;
20935;SDS011;10627;54.514;18.532;2022-07-18T04:37:12;6.03;;;2.40;;
20935;SDS011;10627;54.514;18.532;2022-07-18T04:42:12;6.80;;;2.47;;
20935;SDS011;10627;54.514;18.532;2022-07-18T04:47:13;7.85;;;1.98;;
20935;SDS011;10627;54.514;18.532;2022-07-18T04:52:14;8.95;;;2.30;;
20935;SDS011;10627;54.514;18.532;2022-07-18T04:57:14;5.82;;;2.13;;
20935;SDS011;10627;54.514;18.532;2022-07-18T05:02:15;5.88;;;2.38;;
20935;SDS011;10627;54.514;18.532;2022-07-18T05:07:15;8.82;;;2.40;;
20935;SDS011;10627;54.514;18.532;2022-07-18T05:12:16;4.13;;;1.70;;
20935;SDS011;10627;54.514;18.532;2022-07-18T05:17:16;3.35;;;2.03;;
20935;SDS011;10627;54.514;18.532;2022-07-18T05:22:17;6.50;;;1.85;;
20935;SDS011;10627;54.514;18.532;2022-07-18T05:27:18;7.60;;;2.22;;
20935;SDS011;10627;54.514;18.532;2022-07-18T05:32:18;7.72;;;2.38;;
20935;SDS011;10627;54.514;18.532;2022-07-18T05:37:19;5.60;;;1.92;;
20935;SDS011;10627;54.514;18.532;2022-07-18T05:42:19;6.00;;;2.45;;
20935;SDS011;10627;54.514;18.532;2022-07-18T05:47:19;4.88;;;2.00;;
20935;SDS011;10627;54.514;18.532;2022-07-18T05:52:20;8.45;;;2.10;;
20935;SDS011;10627;54.514;18.532;2022-07-18T05:57:21;5.43;;;1.92;;
20935;SDS011;10627;54.514;18.532;2022-07-18T06:02:21;9.32;;;2.20;;
20935;SDS011;10627;54.514;18.532;2022-07-18T06:07:22;4.57;;;1.73;;
20935;SDS011;10627;54.514;18.532;2022-07-18T06:12:24;5.43;;;2.00;;
20935;SDS011;10627;54.514;18.532;2022-07-18T06:17:24;5.97;;;2.03;;
20935;SDS011;10627;54.514;18.532;2022-07-18T06:22:25;7.13;;;2.78;;
20935;SDS011;10627;54.514;18.532;2022-07-18T06:27:26;4.50;;;2.13;;
20935;SDS011;10627;54.514;18.532;2022-07-18T06:32:27;4.43;;;1.85;;
20935;SDS011;10627;54.514;18.532;2022-07-18T06:37:27;8.77;;;1.90;;
20935;SDS011;10627;54.514;18.532;2022-07-18T06:42:28;6.43;;;2.38;;
20935;SDS011;10627;54.514;18.532;2022-07-18T06:47:28;4.55;;;2.00;;
20935;SDS011;10627;54.514;18.532;2022-07-18T06:52:28;4.85;;;1.90;;
20935;SDS011;10627;54.514;18.532;2022-07-18T06:57:29;12.98;;;2.58;;
20935;SDS011;10627;54.514;18.532;2022-07-18T07:02:29;6.22;;;2.47;;
20935;SDS011;10627;54.514;18.532;2022-07-18T07:07:30;5.45;;;2.30;;
20935;SDS011;10627;54.514;18.532;2022-07-18T07:12:37;6.22;;;2.03;;
20935;SDS011;10627;54.514;18.532;2022-07-18T07:17:37;7.88;;;2.38;;
20935;SDS011;10627;54.514;18.532;2022-07-18T07:22:42;7.03;;;3.05;;
20935;SDS011;10627;54.514;18.532;2022-07-18T07:27:46;6.93;;;2.88;;
20935;SDS011;10627;54.514;18.532;2022-07-18T07:32:46;9.23;;;2.35;;
20935;SDS011;10627;54.514;18.532;2022-07-18T07:37:50;8.77;;;2.67;;
20935;SDS011;10627;54.514;18.532;2022-07-18T07:43:05;10.65;;;2.63;;
20935;SDS011;10627;54.514;18.532;2022-07-18T07:48:06;6.95;;;2.70;;
20935;SDS011;10627;54.514;18.532;2022-07-18T07:53:07;6.25;;;2.15;;
20935;SDS011;10627;54.514;18.532;2022-07-18T07:58:09;5.55;;;1.92;;
20935;SDS011;10627;54.514;18.532;2022-07-18T08:03:10;5.07;;;2.65;;
20935;SDS011;10627;54.514;18.532;2022-07-18T08:08:10;4.65;;;1.85;;
20935;SDS011;10627;54.514;18.532;2022-07-18T08:13:11;2.90;;;2.00;;
20935;SDS011;10627;54.514;18.532;2022-07-18T08:18:12;7.55;;;2.50;;
20935;SDS011;10627;54.514;18.532;2022-07-18T08:23:13;3.97;;;2.20;;
20935;SDS011;10627;54.514;18.532;2022-07-18T08:28:13;3.10;;;2.13;;
20935;SDS011;10627;54.514;18.532;2022-07-18T08:33:14;3.95;;;1.90;;
20935;SDS011;10627;54.514;18.532;2022-07-18T08:38:15;10.40;;;2.00;;
20935;SDS011;10627;54.514;18.532;2022-07-18T08:43:15;5.88;;;2.13;;
20935;SDS011;10627;54.514;18.532;2022-07-18T08:48:16;3.05;;;1.80;;
20935;SDS011;10627;54.514;18.532;2022-07-18T08:53:17;4.72;;;2.13;;
20935;SDS011;10627;54.514;18.532;2022-07-18T08:58:19;2.47;;;1.50;;
20935;SDS011;10627;54.514;18.532;2022-07-18T09:03:20;3.20;;;1.40;;
20935;SDS011;10627;54.514;18.532;2022-07-18T09:08:20;2.67;;;1.50;;
20935;SDS011;10627;54.514;18.532;2022-07-18T09:13:22;6.28;;;1.50;;
20935;SDS011;10627;54.514;18.532;2022-07-18T09:18:28;5.40;;;1.60;;
20935;SDS011;10627;54.514;18.532;2022-07-18T09:23:43;2.35;;;1.65;;
20935;SDS011;10627;54.514;18.532;2022-07-18T09:28:52;2.90;;;1.80;;
20935;SDS011;10627;54.514;18.532;2022-07-18T09:33:55;2.92;;;1.67;;
20935;SDS011;10627;54.514;18.532;2022-07-18T09:38:56;4.40;;;2.38;;
20935;SDS011;10627;54.514;18.532;2022-07-18T09:43:57;2.65;;;1.45;;
20935;SDS011;10627;54.514;18.532;2022-07-18T09:49:10;2.25;;;1.65;;
20935;SDS011;10627;54.514;18.532;2022-07-18T09:54:10;4.63;;;1.75;;
20935;SDS011;10627;54.514;18.532;2022-07-18T09:59:11;3.03;;;1.60;;
20935;SDS011;10627;54.514;18.532;2022-07-18T10:04:13;4.70;;;1.45;;
20935;SDS011;10627;54.514;18.532;2022-07-18T10:09:14;4.05;;;1.70;;
20935;SDS011;10627;54.514;18.532;2022-07-18T10:14:15;2.63;;;1.30;;
20935;SDS011;10627;54.514;18.532;2022-07-18T10:19:15;4.97;;;2.58;;
20935;SDS011;10627;54.514;18.532;2022-07-18T10:24:16;3.38;;;2.10;;
20935;SDS011;10627;54.514;18.532;2022-07-18T10:29:17;3.38;;;1.55;;
20935;SDS011;10627;54.514;18.532;2022-07-18T10:34:18;3.13;;;1.80;;
20935;SDS011;10627;54.514;18.532;2022-07-18T10:39:47;1.77;;;1.48;;
20935;SDS011;10627;54.514;18.532;2022-07-18T10:44:49;3.50;;;1.30;;
20935;SDS011;10627;54.514;18.532;2022-07-18T11:00:07;3.35;;;1.50;;
20935;SDS011;10627;54.514;18.532;2022-07-18T11:15:56;5.25;;;1.80;;
20935;SDS011;10627;54.514;18.532;2022-07-18T11:20:56;3.38;;;1.70;;
20935;SDS011;10627;54.514;18.532;2022-07-18T11:25:57;2.45;;;1.38;;
20935;SDS011;10627;54.514;18.532;2022-07-18T11:30:59;5.20;;;1.40;;
20935;SDS011;10627;54.514;18.532;2022-07-18T11:36:04;3.28;;;1.48;;
20935;SDS011;10627;54.514;18.532;2022-07-18T11:41:05;1.05;;;0.95;;
20935;SDS011;10627;54.514;18.532;2022-07-18T11:46:07;1.92;;;1.23;;
20935;SDS011;10627;54.514;18.532;2022-07-18T11:51:08;1.88;;;1.35;;
20935;SDS011;10627;54.514;18.532;2022-07-18T11:56:10;3.42;;;1.58;;
20935;SDS011;10627;54.514;18.532;2022-07-18T12:01:11;1.67;;;1.17;;
20935;SDS011;10627;54.514;18.532;2022-07-18T12:11:33;2.30;;;1.20;;
20935;SDS011;10627;54.514;18.532;2022-07-18T12:16:35;2.88;;;1.10;;
20935;SDS011;10627;54.514;18.532;2022-07-18T12:26:47;4.03;;;0.80;;
20935;SDS011;10627;54.514;18.532;2022-07-18T12:31:48;1.42;;;1.02;;
20935;SDS011;10627;54.514;18.532;2022-07-18T12:36:55;3.55;;;1.10;;
20935;SDS011;10627;54.514;18.532;2022-07-18T12:42:00;5.97;;;1.00;;
20935;SDS011;10627;54.514;18.532;2022-07-18T12:47:00;3.55;;;1.17;;
20935;SDS011;10627;54.514;18.532;2022-07-18T12:52:01;1.58;;;1.05;;
20935;SDS011;10627;54.514;18.532;2022-07-18T12:57:02;3.00;;;0.90;;
20935;SDS011;10627;54.514;18.532;2022-07-18T13:02:02;3.28;;;1.33;;
20935;SDS011;10627;54.514;18.532;2022-07-18T13:07:03;3.10;;;0.88;;
20935;SDS011;10627;54.514;18.532;2022-07-18T13:12:04;2.88;;;0.60;;
20935;SDS011;10627;54.514;18.532;2022-07-18T13:17:04;2.45;;;1.00;;
20935;SDS011;10627;54.514;18.532;2022-07-18T13:22:05;3.25;;;0.80;;
20935;SDS011;10627;54.514;18.532;2022-07-18T13:27:06;3.47;;;2.08;;
20935;SDS011;10627;54.514;18.532;2022-07-18T13:32:06;7.07;;;1.35;;
20935;SDS011;10627;54.514;18.532;2022-07-18T13:37:08;4.15;;;1.13;;
20935;SDS011;10627;54.514;18.532;2022-07-18T13:42:09;1.20;;;1.10;;
20935;SDS011;10627;54.514;18.532;2022-07-18T13:47:10;2.72;;;1.10;;
20935;SDS011;10627;54.514;18.532;2022-07-18T13:52:10;2.15;;;1.15;;
20935;SDS011;10627;54.514;18.532;2022-07-18T13:57:11;1.65;;;1.05;;
20935;SDS011;10627;54.514;18.532;2022-07-18T14:02:11;3.00;;;0.90;;
20935;SDS011;10627;54.514;18.532;2022-07-18T14:07:12;2.20;;;1.10;;
20935;SDS011;10627;54.514;18.532;2022-07-18T14:12:17;5.68;;;1.55;;
20935;SDS011;10627;54.514;18.532;2022-07-18T14:17:18;4.07;;;0.90;;
20935;SDS011;10627;54.514;18.532;2022-07-18T14:22:18;4.40;;;1.30;;
20935;SDS011;10627;54.514;18.532;2022-07-18T14:27:19;11.00;;;2.10;;
20935;SDS011;10627;54.514;18.532;2022-07-18T14:32:19;5.38;;;2.00;;
20935;SDS011;10627;54.514;18.532;2022-07-18T14:37:20;8.27;;;1.70;;
20935;SDS011;10627;54.514;18.532;2022-07-18T14:42:20;2.85;;;1.42;;
20935;SDS011;10627;54.514;18.532;2022-07-18T14:47:21;3.75;;;1.23;;
20935;SDS011;10627;54.514;18.532;2022-07-18T14:52:22;2.22;;;1.65;;
20935;SDS011;10627;54.514;18.532;2022-07-18T14:57:22;2.47;;;1.38;;
20935;SDS011;10627;54.514;18.532;2022-07-18T15:02:23;2.30;;;1.50;;
20935;SDS011;10627;54.514;18.532;2022-07-18T15:07:24;2.63;;;1.45;;
20935;SDS011;10627;54.514;18.532;2022-07-18T15:12:24;6.88;;;1.65;;
20935;SDS011;10627;54.514;18.532;2022-07-18T15:17:25;4.18;;;1.92;;
20935;SDS011;10627;54.514;18.532;2022-07-18T15:22:26;3.70;;;1.25;;
20935;SDS011;10627;54.514;18.532;2022-07-18T15:27:27;3.33;;;1.38;;
20935;SDS011;10627;54.514;18.532;2022-07-18T15:32:28;7.75;;;2.80;;
20935;SDS011;10627;54.514;18.532;2022-07-18T15:37:28;3.33;;;1.70;;
20935;SDS011;10627;54.514;18.532;2022-07-18T15:42:29;4.40;;;1.27;;
20935;SDS011;10627;54.514;18.532;2022-07-18T15:47:29;2.45;;;1.10;;
20935;SDS011;10627;54.514;18.532;2022-07-18T15:52:30;4.40;;;1.85;;
20935;SDS011;10627;54.514;18.532;2022-07-18T15:57:30;2.28;;;1.50;;
20935;SDS011;10627;54.514;18.532;2022-07-18T16:02:31;3.42;;;1.35;;
20935;SDS011;10627;54.514;18.532;2022-07-18T16:07:31;1.42;;;1.20;;
20935;SDS011;10627;54.514;18.532;2022-07-18T16:12:32;3.33;;;1.65;;
20935;SDS011;10627;54.514;18.532;2022-07-18T16:17:32;3.47;;;2.10;;
20935;SDS011;10627;54.514;18.532;2022-07-18T16:22:33;2.92;;;1.80;;
20935;SDS011;10627;54.514;18.532;2022-07-18T16:27:33;4.35;;;2.20;;
20935;SDS011;10627;54.514;18.532;2022-07-18T16:32:34;5.13;;;1.58;;
20935;SDS011;10627;54.514;18.532;2022-07-18T16:37:34;3.33;;;1.80;;
20935;SDS011;10627;54.514;18.532;2022-07-18T16:42:35;5.30;;;2.00;;
20935;SDS011;10627;54.514;18.532;2022-07-18T16:47:35;4.50;;;2.08;;
20935;SDS011;10627;54.514;18.532;2022-07-18T16:52:39;3.90;;;1.75;;
20935;SDS011;10627;54.514;18.532;2022-07-18T16:57:40;3.97;;;2.00;;
20935;SDS011;10627;54.514;18.532;2022-07-18T17:02:40;6.35;;;2.25;;
20935;SDS011;10627;54.514;18.532;2022-07-18T17:07:41;4.45;;;2.15;;
20935;SDS011;10627;54.514;18.532;2022-07-18T17:12:41;2.53;;;1.90;;
20935;SDS011;10627;54.514;18.532;2022-07-18T17:17:42;3.67;;;1.85;;
20935;SDS011;10627;54.514;18.532;2022-07-18T17:22:43;3.17;;;1.80;;
20935;SDS011;10627;54.514;18.532;2022-07-18T17:27:44;3.90;;;2.20;;
20935;SDS011;10627;54.514;18.532;2022-07-18T17:32:44;3.85;;;2.13;;
20935;SDS011;10627;54.514;18.532;2022-07-18T17:37:45;5.45;;;2.60;;
20935;SDS011;10627;54.514;18.532;2022-07-18T17:42:46;3.10;;;1.98;;
20935;SDS011;10627;54.514;18.532;2022-07-18T17:47:46;3.90;;;2.25;;
20935;SDS011;10627;54.514;18.532;2022-07-18T17:52:47;5.85;;;2.72;;
20935;SDS011;10627;54.514;18.532;2022-07-18T17:57:48;3.80;;;2.08;;
20935;SDS011;10627;54.514;18.532;2022-07-18T18:02:48;3.50;;;2.40;;
20935;SDS011;10627;54.514;18.532;2022-07-18T18:07:49;3.88;;;2.42;;
20935;SDS011;10627;54.514;18.532;2022-07-18T18:12:49;3.50;;;2.72;;
20935;SDS011;10627;54.514;18.532;2022-07-18T18:17:50;3.33;;;2.85;;
20935;SDS011;10627;54.514;18.532;2022-07-18T18:22:50;5.20;;;2.42;;
20935;SDS011;10627;54.514;18.532;2022-07-18T18:27:51;8.70;;;3.60;;
20935;SDS011;10627;54.514;18.532;2022-07-18T18:32:51;5.10;;;3.60;;
20935;SDS011;10627;54.514;18.532;2022-07-18T18:37:53;5.03;;;2.85;;
20935;SDS011;10627;54.514;18.532;2022-07-18T18:42:53;4.45;;;3.00;;
20935;SDS011;10627;54.514;18.532;2022-07-18T18:47:54;5.50;;;3.90;;
20935;SDS011;10627;54.514;18.532;2022-07-18T18:52:55;6.68;;;3.50;;
20935;SDS011;10627;54.514;18.532;2022-07-18T18:57:55;6.75;;;3.55;;
20935;SDS011;10627;54.514;18.532;2022-07-18T19:02:56;6.25;;;3.45;;
20935;SDS011;10627;54.514;18.532;2022-07-18T19:07:57;8.23;;;3.40;;
20935;SDS011;10627;54.514;18.532;2022-07-18T19:12:57;5.68;;;3.20;;
20935;SDS011;10627;54.514;18.532;2022-07-18T19:17:58;9.95;;;3.42;;
20935;SDS011;10627;54.514;18.532;2022-07-18T19:22:58;6.05;;;3.13;;
20935;SDS011;10627;54.514;18.532;2022-07-18T19:28:01;5.97;;;3.50;;
20935;SDS011;10627;54.514;18.532;2022-07-18T19:33:02;7.65;;;3.20;;
20935;SDS011;10627;54.514;18.532;2022-07-18T19:38:02;5.70;;;3.85;;
20935;SDS011;10627;54.514;18.532;2022-07-18T19:43:03;7.65;;;3.58;;
20935;SDS011;10627;54.514;18.532;2022-07-18T19:48:04;9.27;;;4.28;;
20935;SDS011;10627;54.514;18.532;2022-07-18T19:53:05;3.80;;;2.85;;
20935;SDS011;10627;54.514;18.532;2022-07-18T19:58:07;9.18;;;3.75;;
20935;SDS011;10627;54.514;18.532;2022-07-18T20:03:08;6.00;;;3.03;;
20935;SDS011;10627;54.514;18.532;2022-07-18T20:08:09;8.15;;;3.25;;
20935;SDS011;10627;54.514;18.532;2022-07-18T20:13:12;7.45;;;3.40;;
20935;SDS011;10627;54.514;18.532;2022-07-18T20:18:13;5.35;;;3.30;;
20935;SDS011;10627;54.514;18.532;2022-07-18T20:23:14;5.25;;;2.95;;
20935;SDS011;10627;54.514;18.532;2022-07-18T20:28:16;4.10;;;3.10;;
20935;SDS011;10627;54.514;18.532;2022-07-18T20:33:17;4.93;;;2.67;;
20935;SDS011;10627;54.514;18.532;2022-07-18T20:38:18;8.60;;;3.33;;
20935;SDS011;10627;54.514;18.532;2022-07-18T20:43:19;7.68;;;3.28;;
20935;SDS011;10627;54.514;18.532;2022-07-18T20:48:20;5.55;;;3.03;;
20935;SDS011;10627;54.514;18.532;2022-07-18T20:53:21;6.13;;;3.42;;
20935;SDS011;10627;54.514;18.532;2022-07-18T20:58:22;7.85;;;3.00;;
20935;SDS011;10627;54.514;18.532;2022-07-18T21:03:22;5.22;;;3.40;;
20935;SDS011;10627;54.514;18.532;2022-07-18T21:08:23;5.10;;;3.28;;
20935;SDS011;10627;54.514;18.532;2022-07-18T21:13:24;7.22;;;3.05;;
20935;SDS011;10627;54.514;18.532;2022-07-18T21:18:24;4.40;;;3.13;;
20935;SDS011;10627;54.514;18.532;2022-07-18T21:23:30;6.25;;;3.00;;
20935;SDS011;10627;54.514;18.532;2022-07-18T21:28:30;4.75;;;3.05;;
20935;SDS011;10627;54.514;18.532;2022-07-18T21:33:31;4.72;;;2.92;;
20935;SDS011;10627;54.514;18.532;2022-07-18T21:38:31;9.82;;;3.20;;
20935;SDS011;10627;54.514;18.532;2022-07-18T21:43:32;5.55;;;2.90;;
20935;SDS011;10627;54.514;18.532;2022-07-18T21:48:33;7.07;;;3.80;;
20935;SDS011;10627;54.514;18.532;2022-07-18T21:53:33;9.60;;;4.25;;
20935;SDS011;10627;54.514;18.532;2022-07-18T21:58:34;8.48;;;3.72;;
20935;SDS011;10627;54.514;18.532;2022-07-18T22:03:34;7.55;;;3.55;;
20935;SDS011;10627;54.514;18.532;2022-07-18T22:08:35;5.18;;;3.13;;
20935;SDS011;10627;54.514;18.532;2022-07-18T22:13:35;5.72;;;3.60;;
20935;SDS011;10627;54.514;18.532;2022-07-18T22:18:36;6.00;;;3.10;;
20935;SDS011;10627;54.514;18.532;2022-07-18T22:23:36;4.72;;;3.30;;
20935;SDS011;10627;54.514;18.532;2022-07-18T22:28:37;4.90;;;2.85;;
20935;SDS011;10627;54.514;18.532;2022-07-18T22:33:37;5.82;;;3.28;;
20935;SDS011;10627;54.514;18.532;2022-07-18T22:38:38;3.10;;;2.78;;
20935;SDS011;10627;54.514;18.532;2022-07-18T22:43:39;10.75;;;3.55;;
20935;SDS011;10627;54.514;18.532;2022-07-18T22:48:39;4.10;;;3.00;;
20935;SDS011;10627;54.514;18.532;2022-07-18T22:53:40;6.72;;;2.80;;
20935;SDS011;10627;54.514;18.532;2022-07-18T22:58:40;6.72;;;3.28;;
20935;SDS011;10627;54.514;18.532;2022-07-18T23:03:41;4.10;;;2.97;;
20935;SDS011;10627;54.514;18.532;2022-07-18T23:08:42;6.75;;;3.45;;
20935;SDS011;10627;54.514;18.532;2022-07-18T23:13:42;4.25;;;3.00;;
20935;SDS011;10627;54.514;18.532;2022-07-18T23:18:43;6.43;;;3.75;;
20935;SDS011;10627;54.514;18.532;2022-07-18T23:23:44;5.22;;;3.13;;
20935;SDS011;10627;54.514;18.532;2022-07-18T23:28:44;5.00;;;3.50;;
20935;SDS011;10627;54.514;18.532;2022-07-18T23:33:45;5.78;;;3.50;;
20935;SDS011;10627;54.514;18.532;2022-07-18T23:38:46;8.82;;;3.33;;
20935;SDS011;10627;54.514;18.532;2022-07-18T23:43:46;5.15;;;3.65;;
20935;SDS011;10627;54.514;18.532;2022-07-18T23:48:47;6.43;;;3.63;;
20935;SDS011;10627;54.514;18.532;2022-07-18T23:53:47;7.22;;;3.35;;
20935;SDS011;10627;54.514;18.532;2022-07-18T23:58:48;5.53;;;3.97;;
